Notice: Undefined index: language in /home/u908952976/domains/airgaviota-va.com/public_html/vam/index.php on line 25
AirGaviota-VA

... VIRTUAL FLIGHT...OUR PASSION



 FLIGHT DETAILS
Pilot: GVT462 Peter V. Aircraft: AN24_FELIS AIRGAVIOTA Distance: 102NM
Departure MUNG Arrival MUHA Duration 00:33
Validation Validated Type Regular Tail Number GV-AAN
ZFW 16189 Block Fuel/Initial FOB 501/0 Flight Fuel 390
Passengers 47 Cargo 1 Alternate MUCL
Departure Time Cruise Speed 240 Flight Level 150
Flight Type IFR Aircraft Type AN-26 Weight Unit Kg
Date 24-04-2020 Pilot Comments Network IVAO
Crashed No Validator Comments Flight Rating -130

 ROUTE
ROUTE UNG DCT UHA
REMARKS
 FLIGHT FAILURES
Crashed OK Beacon off & Engine Running Fail KIAS Above 250 below 10000 FT OK
Lights OFF below 10000 FT OK Lights ON above 10000 FT OK Stall OK
Overspeed OK Flight paused OK Refueling OK
Slew detected OK Taxi & Taxi lights off Fail Take off & lights off OK
Landing & lights off OK Landed in not planned airport OK Taxi Speed Fail
Wrong altimeter in Take off OK Wrong altimeter in Landing OK
 LANDING ANALYSIS
Landing wind 156º/5 kt Landing heading 50
Landing VS: -111.5 ft/min Landing IAS: 90.96 kt
Landing Force G 1 G Landing Bank -0.7
Landing Pitch 1 Landing Flaps 38
Navigation Lights ON Landing Lights ON
Beacon Lights ON Strobe Lights OFF
 FLIGHT MAP
 ALTITUDE CHART
 FLIGHT FINANCIAL REPORT
Cargo:1 .Price per Cargo Unit:75 75.00
Number of PAX:47 .Price per PAX:65 3,055.00
TOTAL 3,130.00
 MAIN EVENTS
DATE EVENTIASALTITUDE
2020-04-24 10:45:10 SIM ACARS version 1.4.1090
2020-04-24 10:45:10 BOARDING090
2020-04-24 10:46:14 STARTING ENGINE 1 090
2020-04-24 10:47:07 STARTING ENGINE 2 090
2020-04-24 10:47:50 BEACON LIGHT OFF & ENGINE ON090
2020-04-24 10:48:59 FLAPS EXTENSION 1 % 090
2020-04-24 10:48:59 FLAPS EXTENSION 2 % 090
2020-04-24 10:48:59 FLAPS EXTENSION 4 % 090
2020-04-24 10:48:59 FLAPS EXTENSION 5 % 090
2020-04-24 10:49:00 FLAPS EXTENSION 8 % 090
2020-04-24 10:49:00 FLAPS EXTENSION 9 % 090
2020-04-24 10:49:00 FLAPS EXTENSION 10 % 090
2020-04-24 10:49:00 FLAPS EXTENSION 12 % 090
2020-04-24 10:49:00 FLAPS EXTENSION 13 % 090
2020-04-24 10:49:00 FLAPS EXTENSION 14 % 090
2020-04-24 10:49:01 FLAPS EXTENSION 16 % 090
2020-04-24 10:49:01 FLAPS EXTENSION 17 % 090
2020-04-24 10:49:01 FLAPS EXTENSION 19 % 090
2020-04-24 10:49:01 FLAPS EXTENSION 20 % 090
2020-04-24 10:49:01 FLAPS EXTENSION 22 % 090
2020-04-24 10:49:01 FLAPS EXTENSION 23 % 090
2020-04-24 10:49:02 FLAPS EXTENSION 24 % 090
2020-04-24 10:49:02 FLAPS EXTENSION 25 % 090
2020-04-24 10:49:02 FLAPS EXTENSION 26 % 090
2020-04-24 10:49:02 FLAPS EXTENSION 27 % 090
2020-04-24 10:49:02 FLAPS EXTENSION 29 % 090
2020-04-24 10:49:02 FLAPS EXTENSION 31 % 090
2020-04-24 10:49:03 FLAPS EXTENSION 32 % 090
2020-04-24 10:49:03 FLAPS EXTENSION 33 % 090
2020-04-24 10:49:03 FLAPS EXTENSION 34 % 090
2020-04-24 10:49:03 FLAPS EXTENSION 35 % 090
2020-04-24 10:49:03 FLAPS EXTENSION 37 % 090
2020-04-24 10:49:04 FLAPS EXTENSION 37 % 090
2020-04-24 10:51:43 TAXI TO THE RWY 190
2020-04-24 10:51:43 TAXING WITH TAXI LIGHTS OFF190
2020-04-24 10:54:13 ROLLING FOR TAKE OFF3690
2020-04-24 10:54:31 TAKE OFF10693
2020-04-24 10:54:44 FLAPS EXTENSION 37 % 107383
2020-04-24 10:54:44 FLAPS EXTENSION 35 % 107390
2020-04-24 10:54:45 FLAPS EXTENSION 31 % 106404
2020-04-24 10:54:45 FLAPS EXTENSION 30 % 104412
2020-04-24 10:54:45 FLAPS EXTENSION 28 % 104420
2020-04-24 10:54:46 FLAPS EXTENSION 26 % 103427
2020-04-24 10:54:46 FLAPS EXTENSION 26 % 103437
2020-04-24 10:54:56 GEAR UP94738
2020-04-24 10:57:08 FLAPS EXTENSION 24 % 1053585
2020-04-24 10:57:08 FLAPS EXTENSION 22 % 1063589
2020-04-24 10:57:08 FLAPS EXTENSION 21 % 1063592
2020-04-24 10:57:08 FLAPS EXTENSION 20 % 1063596
2020-04-24 10:57:09 FLAPS EXTENSION 19 % 1063598
2020-04-24 10:57:09 FLAPS EXTENSION 18 % 1063601
2020-04-24 10:57:09 FLAPS EXTENSION 16 % 1063605
2020-04-24 10:57:09 FLAPS EXTENSION 14 % 1063609
2020-04-24 10:57:09 FLAPS EXTENSION 13 % 1073612
2020-04-24 10:57:10 FLAPS EXTENSION 12 % 1073615
2020-04-24 10:57:10 FLAPS EXTENSION 10 % 1073619
2020-04-24 10:57:10 FLAPS EXTENSION 8 % 1073623
2020-04-24 10:57:10 FLAPS EXTENSION 5 % 1083631
2020-04-24 10:57:11 FLAPS EXTENSION 3 % 1083635
2020-04-24 10:57:11 FLAPS EXTENSION 3 % 1083637
2020-04-24 10:57:11 FLAPS EXTENSION 1 % 1093645
2020-04-24 10:57:11 FLAPS EXTENSION 0 % 1093647
2020-04-24 10:57:13 GEAR DOWN1123670
2020-04-24 10:57:13 GEAR UP1123672
2020-04-24 11:06:01 CRUISE18414995
2020-04-24 11:10:21 DESCEND20314662
2020-04-24 11:19:51 CRUISE1912904
2020-04-24 11:21:41 DESCEND1922593
2020-04-24 11:22:18 FLAPS EXTENSION 2 % 1512560
2020-04-24 11:22:18 FLAPS EXTENSION 4 % 1512559
2020-04-24 11:22:18 FLAPS EXTENSION 5 % 1502557
2020-04-24 11:22:19 FLAPS EXTENSION 7 % 1502556
2020-04-24 11:22:19 FLAPS EXTENSION 10 % 1482553
2020-04-24 11:22:19 FLAPS EXTENSION 12 % 1472551
2020-04-24 11:23:11 FLAPS EXTENSION 12 % 1431827
2020-04-24 11:23:12 FLAPS EXTENSION 15 % 1411822
2020-04-24 11:23:12 FLAPS EXTENSION 17 % 1401819
2020-04-24 11:23:12 FLAPS EXTENSION 19 % 1401817
2020-04-24 11:23:13 FLAPS EXTENSION 20 % 1391814
2020-04-24 11:23:13 FLAPS EXTENSION 21 % 1391813
2020-04-24 11:23:13 FLAPS EXTENSION 23 % 1391811
2020-04-24 11:23:13 FLAPS EXTENSION 24 % 1391809
2020-04-24 11:23:14 FLAPS EXTENSION 27 % 1391807
2020-04-24 11:23:14 FLAPS EXTENSION 28 % 1401806
2020-04-24 11:23:14 FLAPS EXTENSION 30 % 1391806
2020-04-24 11:23:15 FLAPS EXTENSION 31 % 1391805
2020-04-24 11:23:15 FLAPS EXTENSION 32 % 1391805
2020-04-24 11:23:15 FLAPS EXTENSION 33 % 1391805
2020-04-24 11:23:15 FLAPS EXTENSION 35 % 1391805
2020-04-24 11:23:16 FLAPS EXTENSION 35 % 1381805
2020-04-24 11:23:33 FLAPS EXTENSION 35 % 1201731
2020-04-24 11:23:33 FLAPS EXTENSION 37 % 1201729
2020-04-24 11:23:33 FLAPS EXTENSION 39 % 1201727
2020-04-24 11:23:33 FLAPS EXTENSION 40 % 1201725
2020-04-24 11:23:34 FLAPS EXTENSION 42 % 1191723
2020-04-24 11:23:34 FLAPS EXTENSION 43 % 1191722
2020-04-24 11:23:34 FLAPS EXTENSION 44 % 1191719
2020-04-24 11:23:35 FLAPS EXTENSION 46 % 1191718
2020-04-24 11:23:35 FLAPS EXTENSION 47 % 1181717
2020-04-24 11:23:35 FLAPS EXTENSION 49 % 1181715
2020-04-24 11:23:35 FLAPS EXTENSION 50 % 1181714
2020-04-24 11:23:36 FLAPS EXTENSION 52 % 1161711
2020-04-24 11:23:36 FLAPS EXTENSION 54 % 1181713
2020-04-24 11:23:36 FLAPS EXTENSION 55 % 1171712
2020-04-24 11:23:37 FLAPS EXTENSION 56 % 1161711
2020-04-24 11:23:37 FLAPS EXTENSION 57 % 1141706
2020-04-24 11:23:37 FLAPS EXTENSION 60 % 1131704
2020-04-24 11:23:38 FLAPS EXTENSION 61 % 1131703
2020-04-24 11:23:50 FLAPS EXTENSION 62 % 1111532
2020-04-24 11:23:50 FLAPS EXTENSION 64 % 1101529
2020-04-24 11:23:50 FLAPS EXTENSION 66 % 1101524
2020-04-24 11:23:51 FLAPS EXTENSION 67 % 1101524
2020-04-24 11:23:51 FLAPS EXTENSION 69 % 1101520
2020-04-24 11:23:51 FLAPS EXTENSION 70 % 1101516
2020-04-24 11:23:51 FLAPS EXTENSION 71 % 1101512
2020-04-24 11:23:52 FLAPS EXTENSION 73 % 1101509
2020-04-24 11:23:52 FLAPS EXTENSION 74 % 1101505
2020-04-24 11:23:52 FLAPS EXTENSION 75 % 1101502
2020-04-24 11:23:52 FLAPS EXTENSION 77 % 1101496
2020-04-24 11:23:53 FLAPS EXTENSION 78 % 1091493
2020-04-24 11:23:53 FLAPS EXTENSION 79 % 1091490
2020-04-24 11:23:53 FLAPS EXTENSION 80 % 1091487
2020-04-24 11:23:53 FLAPS EXTENSION 82 % 1091485
2020-04-24 11:23:54 FLAPS EXTENSION 83 % 1081482
2020-04-24 11:23:54 FLAPS EXTENSION 84 % 1071479
2020-04-24 11:23:54 FLAPS EXTENSION 85 % 1061479
2020-04-24 11:23:54 FLAPS EXTENSION 86 % 1061481
2020-04-24 11:23:55 FLAPS EXTENSION 87 % 1051472
2020-04-24 11:23:55 FLAPS EXTENSION 89 % 1051469
2020-04-24 11:23:55 FLAPS EXTENSION 90 % 1051467
2020-04-24 11:23:55 FLAPS EXTENSION 91 % 1041464
2020-04-24 11:23:56 FLAPS EXTENSION 92 % 1041461
2020-04-24 11:23:56 FLAPS EXTENSION 93 % 1041460
2020-04-24 11:23:56 FLAPS EXTENSION 95 % 1031456
2020-04-24 11:23:56 FLAPS EXTENSION 96 % 1031453
2020-04-24 11:23:57 FLAPS EXTENSION 97 % 1031450
2020-04-24 11:23:57 FLAPS EXTENSION 98 % 1041448
2020-04-24 11:23:57 FLAPS EXTENSION 99 % 1041446
2020-04-24 11:23:57 FLAPS EXTENSION 100 % 1041443
2020-04-24 11:24:11 CRUISE991370
2020-04-24 11:24:41 GEAR DOWN971286
2020-04-24 11:24:51 DESCEND991243
2020-04-24 11:26:21 CRUISE99803
2020-04-24 11:27:01 DESCEND100598
2020-04-24 11:28:08 LANDING91222
2020-04-24 11:28:30 FLAPS EXTENSION 99 % 56220
2020-04-24 11:28:30 FLAPS EXTENSION 97 % 56220
2020-04-24 11:28:31 FLAPS EXTENSION 96 % 55220
2020-04-24 11:28:31 FLAPS EXTENSION 94 % 55220
2020-04-24 11:28:31 FLAPS EXTENSION 93 % 55220
2020-04-24 11:28:31 FLAPS EXTENSION 91 % 54220
2020-04-24 11:28:32 FLAPS EXTENSION 90 % 54220
2020-04-24 11:28:32 FLAPS EXTENSION 88 % 56220
2020-04-24 11:28:32 FLAPS EXTENSION 87 % 56220
2020-04-24 11:28:32 FLAPS EXTENSION 86 % 55220
2020-04-24 11:28:32 FLAPS EXTENSION 84 % 55220
2020-04-24 11:28:32 FLAPS EXTENSION 83 % 55220
2020-04-24 11:28:33 FLAPS EXTENSION 82 % 55220
2020-04-24 11:28:33 FLAPS EXTENSION 81 % 51220
2020-04-24 11:28:33 FLAPS EXTENSION 78 % 50220
2020-04-24 11:28:34 FLAPS EXTENSION 77 % 50220
2020-04-24 11:28:34 FLAPS EXTENSION 76 % 49220
2020-04-24 11:28:34 FLAPS EXTENSION 75 % 49220
2020-04-24 11:28:34 FLAPS EXTENSION 72 % 48220
2020-04-24 11:28:35 FLAPS EXTENSION 71 % 48220
2020-04-24 11:28:35 FLAPS EXTENSION 70 % 48220
2020-04-24 11:28:35 FLAPS EXTENSION 69 % 47220
2020-04-24 11:28:35 FLAPS EXTENSION 68 % 47220
2020-04-24 11:28:35 FLAPS EXTENSION 67 % 47220
2020-04-24 11:28:36 FLAPS EXTENSION 66 % 47219
2020-04-24 11:28:36 FLAPS EXTENSION 65 % 47219
2020-04-24 11:28:36 FLAPS EXTENSION 64 % 48219
2020-04-24 11:28:36 FLAPS EXTENSION 63 % 48219
2020-04-24 11:28:37 FLAPS EXTENSION 62 % 48220
2020-04-24 11:28:37 FLAPS EXTENSION 61 % 48220
2020-04-24 11:28:37 FLAPS EXTENSION 60 % 48220
2020-04-24 11:28:37 FLAPS EXTENSION 59 % 48220
2020-04-24 11:28:37 FLAPS EXTENSION 57 % 47220
2020-04-24 11:28:38 FLAPS EXTENSION 56 % 47220
2020-04-24 11:28:38 FLAPS EXTENSION 55 % 47220
2020-04-24 11:28:38 FLAPS EXTENSION 54 % 47220
2020-04-24 11:28:38 FLAPS EXTENSION 53 % 47220
2020-04-24 11:28:39 FLAPS EXTENSION 53 % 46220
2020-04-24 11:28:39 FLAPS EXTENSION 52 % 46220
2020-04-24 11:28:39 FLAPS EXTENSION 51 % 46220
2020-04-24 11:28:39 FLAPS EXTENSION 50 % 46220
2020-04-24 11:28:39 FLAPS EXTENSION 49 % 46220
2020-04-24 11:28:40 FLAPS EXTENSION 48 % 45220
2020-04-24 11:28:40 FLAPS EXTENSION 47 % 45219
2020-04-24 11:28:40 FLAPS EXTENSION 46 % 45220
2020-04-24 11:28:40 FLAPS EXTENSION 46 % 45220
2020-04-24 11:28:41 FLAPS EXTENSION 45 % 44220
2020-04-24 11:28:41 FLAPS EXTENSION 44 % 44220
2020-04-24 11:28:41 FLAPS EXTENSION 43 % 44220
2020-04-24 11:28:41 FLAPS EXTENSION 41 % 44220
2020-04-24 11:28:42 FLAPS EXTENSION 40 % 44220
2020-04-24 11:28:42 FLAPS EXTENSION 39 % 43220
2020-04-24 11:28:42 FLAPS EXTENSION 38 % 43220
2020-04-24 11:28:42 FLAPS EXTENSION 37 % 43220
2020-04-24 11:28:43 FLAPS EXTENSION 36 % 43220
2020-04-24 11:28:43 FLAPS EXTENSION 35 % 43220
2020-04-24 11:28:48 FLAPS EXTENSION 35 % 36220
2020-04-24 11:28:48 FLAPS EXTENSION 34 % 35220
2020-04-24 11:28:49 FLAPS EXTENSION 33 % 35220
2020-04-24 11:28:49 FLAPS EXTENSION 31 % 35220
2020-04-24 11:28:49 FLAPS EXTENSION 30 % 35220
2020-04-24 11:28:49 FLAPS EXTENSION 29 % 35220
2020-04-24 11:28:49 FLAPS EXTENSION 28 % 35220
2020-04-24 11:28:50 FLAPS EXTENSION 26 % 35220
2020-04-24 11:28:50 FLAPS EXTENSION 25 % 36220
2020-04-24 11:28:50 FLAPS EXTENSION 24 % 34220
2020-04-24 11:28:50 FLAPS EXTENSION 23 % 34220
2020-04-24 11:28:51 FLAPS EXTENSION 22 % 34220
2020-04-24 11:28:51 FLAPS EXTENSION 21 % 34220
2020-04-24 11:28:51 FLAPS EXTENSION 20 % 34220
2020-04-24 11:28:51 FLAPS EXTENSION 19 % 34220
2020-04-24 11:28:51 FLAPS EXTENSION 18 % 36220
2020-04-24 11:28:52 FLAPS EXTENSION 17 % 35220
2020-04-24 11:28:52 FLAPS EXTENSION 15 % 35220
2020-04-24 11:28:52 FLAPS EXTENSION 14 % 35219
2020-04-24 11:28:52 FLAPS EXTENSION 13 % 35219
2020-04-24 11:28:52 FLAPS EXTENSION 12 % 34219
2020-04-24 11:28:53 FLAPS EXTENSION 10 % 34219
2020-04-24 11:28:53 FLAPS EXTENSION 9 % 34219
2020-04-24 11:28:53 FLAPS EXTENSION 9 % 34219
2020-04-24 11:28:54 FLAPS EXTENSION 8 % 34219
2020-04-24 11:28:54 FLAPS EXTENSION 7 % 34220
2020-04-24 11:28:54 FLAPS EXTENSION 6 % 36220
2020-04-24 11:28:54 FLAPS EXTENSION 5 % 36220
2020-04-24 11:28:54 FLAPS EXTENSION 4 % 36220
2020-04-24 11:28:55 FLAPS EXTENSION 3 % 36220
2020-04-24 11:28:55 FLAPS EXTENSION 2 % 35220
2020-04-24 11:28:55 FLAPS EXTENSION 1 % 36220
2020-04-24 11:28:55 FLAPS EXTENSION 0 % 36220
2020-04-24 11:28:56 FLAPS EXTENSION 0 % 36220
2020-04-24 11:29:12 TAXI TO THE GATE20220
2020-04-24 11:28:19 TAXI SPEED ABOVE 25 KTS27220
2020-04-24 11:29:37 STOPPING ENGINE 2 27220
2020-04-24 11:33:28 STOPPING ENGINE 1 0220
 ACARS DATA
DATE IASGSALTITUDEFUEL CONSUMED OATFLIGHT STATUS
2020-04-24 10:46:100089031BOARDING
2020-04-24 10:47:100089431BOARDING
2020-04-24 10:48:1000891231BOARDING
2020-04-24 10:49:1000892031BOARDING
2020-04-24 10:50:1000892731BOARDING
2020-04-24 10:51:1002893531BOARDING
2020-04-24 10:52:103024894331TAXI TO THE RWY
2020-04-24 10:53:103425895231TAXI TO THE RWY
2020-04-24 10:54:102329896131TAXI TO THE RWY
2020-04-24 10:55:109410910607229CLIMBING
2020-04-24 10:56:109610923169826CLIMBING
2020-04-24 10:57:10107127362211823CLIMBING
2020-04-24 10:58:10116140521813719CLIMBING
2020-04-24 10:59:10113139703715714CLIMBING
2020-04-24 11:00:10103128882017710CLIMBING
2020-04-24 11:01:1094123105291956CLIMBING
2020-04-24 11:02:10110150118062130CLIMBING
2020-04-24 11:03:1011115513282230-3CLIMBING
2020-04-24 11:04:1011616514628246-6CLIMBING
2020-04-24 11:05:1016522714960257-7CLIMBING
2020-04-24 11:06:1018825614960274-7CRUISE
2020-04-24 11:07:1019826914948286-7CRUISE
2020-04-24 11:08:1020227314948298-7CRUISE
2020-04-24 11:09:1020327514943310-7CRUISE
2020-04-24 11:10:1019927014834320-7CRUISE
2020-04-24 11:11:1021928813472328-4DESCEND
2020-04-24 11:12:10231295119413360DESCEND
2020-04-24 11:13:10212266105243412DESCEND
2020-04-24 11:14:1020124892223465DESCEND
2020-04-24 11:15:1019723879423508DESCEND
2020-04-24 11:16:10193228669035511DESCEND
2020-04-24 11:17:10187214562235913DESCEND
2020-04-24 11:18:10188212445236416DESCEND
2020-04-24 11:19:10183200300637120DESCEND
2020-04-24 11:20:10200216288737620CRUISE
2020-04-24 11:21:10208227293939420CRUISE
2020-04-24 11:22:10156175257140021DESCEND
2020-04-24 11:23:10144148184640722DESCEND
2020-04-24 11:24:109898137041323DESCEND
2020-04-24 11:25:1010099118842624DESCEND
2020-04-24 11:26:10989782643825DESCEND
2020-04-24 11:27:1010310252745125DESCEND
2020-04-24 11:28:10929122146326LANDED
2020-04-24 11:29:10211921947126LANDED
2020-04-24 11:28:42171721947926TAXI TO THE GATE
2020-04-24 11:29:42273021948626TAXI TO THE GATE
2020-04-24 11:30:426821949026TAXI TO THE GATE
2020-04-24 11:31:425821949326TAXI TO THE GATE
2020-04-24 11:32:420021949826TAXI TO THE GATE
2020-04-24 11:33:420021950126TAXI TO THE GATE